Time;durP1;ratioP1;P1;durP2;ratioP2;P2;SDS_P1;SDS_P2;PMS_P1;PMS_P2;Temp;Humidity;BMP_temperature;BMP_pressure;BME280_temperature;BME280_humidity;BME280_pressure;Samples;Min_cycle;Max_cycle;Signal;HPM_P1;HPM_P2
2023/08/05 00:00:09;;;;;;;;;;;;;;;27.23;56.93;98971.38;346974;28;1331;-80
2023/08/05 00:00:20;;;;;;;;;;;;;;;27.17;56.68;98972.94;346359;28;1209;-80
2023/08/05 00:00:30;;;;;;;;;;;;;;;27.15;57.02;98963.41;347836;28;1304;-82
2023/08/05 00:00:40;;;;;;;;;;;;;;;27.13;56.81;98965.44;347836;28;1187;-80
2023/08/05 00:00:50;;;;;;;;;;;;;;;27.12;57.03;98966.47;347696;28;832;-79
2023/08/05 00:01:01;;;;;;;;;;;;;;;27.13;56.97;98960.06;349100;28;1196;-80
2023/08/05 00:01:11;;;;;;;;;;;;;;;27.13;56.87;98968.13;344172;28;1395;-80
2023/08/05 00:01:21;;;;;;;;;;;;;;;27.15;56.82;98958.03;343433;28;1277;-81
2023/08/05 00:01:31;;;;;;;;;;;;;;;27.13;57.14;98968.13;342378;28;1237;-80
2023/08/05 00:01:42;;;;;;;;;;;;;;;27.12;57.30;98963.78;346463;28;1161;-80
2023/08/05 00:01:52;;;;;;;;;;;;;;;27.08;56.99;98962.47;348038;28;1196;-80
2023/08/05 00:02:02;;;;;;;;;;;;;;;27.06;57.36;98961.81;347861;28;1260;-80
2023/08/05 00:02:12;;;;;;;;;;;;;;;27.09;57.07;98970.34;347758;28;1014;-80
2023/08/05 00:02:23;;;;;;;;;;;;;;;27.10;56.99;98968.50;346806;28;1220;-80
2023/08/05 00:02:33;;;;;;;;;;;;;;;27.12;57.16;98966.47;346470;28;800;-80
2023/08/05 00:02:43;;;;;;;;;;;;;;;27.12;57.34;98964.59;346239;28;1181;-80
2023/08/05 00:02:53;;;;;;;;;;;;;;;27.12;56.98;98963.78;343163;28;1290;-80
2023/08/05 00:03:03;;;;;;;;;;;;;;;27.11;57.25;98962.09;345063;28;1173;-80
2023/08/05 00:03:14;;;;;;;;;;;;;;;27.09;57.26;98964.13;342253;28;1434;-80
2023/08/05 00:03:24;;;;;;;;;;;;;;;27.07;57.09;98966.19;343965;28;1262;-80
2023/08/05 00:03:34;;;;;;;;;;;;;;;27.09;57.34;98958.75;344909;28;1396;-81
2023/08/05 00:03:45;;;;;;;;;;;;;;;27.07;57.47;98961.63;342386;28;1323;-81
2023/08/05 00:03:55;;;;;;;;;;;;;;;27.07;57.34;98968.84;341415;28;1329;-81
2023/08/05 00:04:05;;;;;;;;;;;;;;;27.09;57.31;98969.50;341037;28;1362;-81
2023/08/05 00:04:15;;;;;;;;;;;;;;;27.10;57.41;98963.94;342799;28;937;-81
2023/08/05 00:04:26;;;;;;;;;;;;;;;27.12;57.08;98963.78;343178;28;1222;-81
2023/08/05 00:04:36;;;;;;;;;;;;;;;27.11;57.33;98962.09;340928;29;1219;-81
2023/08/05 00:04:46;;;;;;;;;;;;;;;27.14;57.22;98967.13;339933;29;1184;-81
2023/08/05 00:04:56;;;;;;;;;;;;;;;27.14;57.35;98961.75;339528;29;1320;-81
2023/08/05 00:05:07;;;;;;;;;;;;;;;27.15;57.16;98958.88;341072;28;1343;-80
2023/08/05 00:05:17;;;;;;;;;;;;;;;27.16;57.32;98959.69;340994;29;1330;-80
2023/08/05 00:05:27;;;;;;;;;;;;;;;27.15;57.27;98961.56;335833;29;1577;-80
2023/08/05 00:05:38;;;;;;;;;;;;;;;27.18;56.82;98957.66;335891;29;1504;-80
2023/08/05 00:05:48;;;;;;;;;;;;;;;27.21;56.98;98962.66;336002;29;810;-80
2023/08/05 00:05:59;;;;;;;;;;;;;;;27.20;56.91;98960.16;331641;29;1691;-80
2023/08/05 00:06:10;;;;;;;;;;;;;;;27.19;56.97;98959.34;330356;29;1905;-80
2023/08/05 00:06:20;;;;;;;;;;;;;;;27.14;57.22;98965.25;329294;30;1620;-80
2023/08/05 00:06:30;;;;;;;;;;;;;;;27.11;57.30;98962.94;329585;30;1244;-81
2023/08/05 00:06:40;;;;;;;;;;;;;;;27.04;57.11;98962.00;326490;30;1340;-81
2023/08/05 00:06:51;;;;;;;;;;;;;;;27.03;57.55;98959.50;326689;30;1211;-81
2023/08/05 00:07:01;;;;;;;;;;;;;;;26.99;57.66;98963.56;328224;30;1201;-81
2023/08/05 00:07:11;;;;;;;;;;;;;;;26.98;57.83;98964.59;328018;29;1476;-81
2023/08/05 00:07:21;;;;;;;;;;;;;;;26.97;57.75;98960.22;325119;30;1974;-80
2023/08/05 00:07:32;;;;;;;;;;;;;;;26.98;58.01;98964.59;323447;30;1221;-80
2023/08/05 00:07:42;;;;;;;;;;;;;;;26.95;57.67;98963.06;318925;30;2168;-80
2023/08/05 00:07:52;;;;;;;;;;;;;;;26.92;57.81;98960.75;317314;30;2037;-80
2023/08/05 00:08:05;;;;;;;;;;;;;;;26.87;58.29;98955.09;316496;31;1240;-80
2023/08/05 00:08:16;;;;;;;;;;;;;;;26.87;58.12;98965.00;323310;30;1301;-80
2023/08/05 00:08:26;;;;;;;;;;;;;;;26.88;58.36;98964.81;326250;30;2242;-80
2023/08/05 00:08:36;;;;;;;;;;;;;;;26.87;58.11;98956.94;326216;30;2385;-80
2023/08/05 00:08:47;;;;;;;;;;;;;;;26.90;58.15;98961.94;325846;30;1211;-80
2023/08/05 00:08:57;;;;;;;;;;;;;;;26.88;58.11;98970.19;323372;30;1570;-80
2023/08/05 00:09:07;;;;;;;;;;;;;;;26.88;58.46;98966.66;324925;30;1609;-80
2023/08/05 00:09:18;;;;;;;;;;;;;;;26.87;58.45;98967.69;325734;30;1270;-80
2023/08/05 00:09:28;;;;;;;;;;;;;;;26.82;58.45;98965.56;326137;30;1969;-80
2023/08/05 00:09:38;;;;;;;;;;;;;;;26.84;58.60;98961.69;321178;30;2524;-80
2023/08/05 00:09:48;;;;;;;;;;;;;;;26.88;58.19;98961.28;318776;30;1172;-80
2023/08/05 00:09:59;;;;;;;;;;;;;;;26.89;58.16;98958.41;323786;30;2446;-80
2023/08/05 00:10:09;;;;;;;;;;;;;;;26.91;58.29;98960.94;321796;30;3267;-80
2023/08/05 00:10:19;;;;;;;;;;;;;;;26.93;58.25;98964.25;317296;30;2727;-80
2023/08/05 00:10:30;;;;;;;;;;;;;;;26.97;58.09;98961.06;316461;31;1409;-80
2023/08/05 00:10:43;;;;;;;;;;;;;;;27.02;57.90;98955.13;313691;31;3210;-80
2023/08/05 00:10:54;;;;;;;;;;;;;;;27.07;57.96;98960.81;313614;31;3543;-80
2023/08/05 00:11:04;;;;;;;;;;;;;;;27.11;57.84;98967.47;314865;31;1659;-80
2023/08/05 00:11:14;;;;;;;;;;;;;;;27.09;57.84;98962.28;314037;31;1412;-80
2023/08/05 00:11:25;;;;;;;;;;;;;;;27.07;57.76;98964.31;312657;31;2128;-80
2023/08/05 00:11:35;;;;;;;;;;;;;;;27.04;57.94;98966.53;310562;31;2921;-80
2023/08/05 00:11:45;;;;;;;;;;;;;;;27.01;57.96;98959.69;310906;31;1202;-80
2023/08/05 00:11:55;;;;;;;;;;;;;;;27.02;57.91;98963.19;308668;31;3465;-80
2023/08/05 00:12:06;;;;;;;;;;;;;;;27.03;57.97;98965.69;304756;32;4101;-80
2023/08/05 00:12:16;;;;;;;;;;;;;;;27.02;57.63;98966.72;304532;32;848;-80
2023/08/05 00:12:26;;;;;;;;;;;;;;;26.99;57.89;98958.19;299413;32;5671;-80
2023/08/05 00:12:36;;;;;;;;;;;;;;;26.96;58.20;98962.06;296685;32;4132;-80
2023/08/05 00:12:47;;;;;;;;;;;;;;;26.93;58.07;98964.25;296356;33;1363;-80
2023/08/05 00:12:58;;;;;;;;;;;;;;;26.89;58.30;98957.59;299189;32;5675;-80
2023/08/05 00:13:08;;;;;;;;;;;;;;;26.92;58.35;98965.28;298929;32;4787;-80
2023/08/05 00:13:18;;;;;;;;;;;;;;;26.97;57.99;98962.91;299372;33;924;-80
2023/08/05 00:13:34;;;;;;;;;;;;;;;27.01;58.15;98964.22;295601;33;2759;-80
2023/08/05 00:13:44;;;;;;;;;;;;;;;27.04;57.83;98963.84;298308;33;1390;-80
2023/08/05 00:13:54;;;;;;;;;;;;;;;27.06;58.07;98962.66;293753;33;4332;-80
2023/08/05 00:14:04;;;;;;;;;;;;;;;27.06;58.04;98962.66;292828;33;5302;-80
2023/08/05 00:14:15;;;;;;;;;;;;;;;27.06;57.88;98959.13;292256;33;1222;-80
2023/08/05 00:14:25;;;;;;;;;;;;;;;27.09;57.73;98966.81;289484;33;6052;-80
2023/08/05 00:14:35;;;;;;;;;;;;;;;27.09;57.77;98961.44;286455;34;7389;-80
2023/08/05 00:14:46;;;;;;;;;;;;;;;27.07;57.89;98961.63;282443;35;1299;-80
2023/08/05 00:14:57;;;;;;;;;;;;;;;27.08;57.73;98963.31;284424;34;7899;-79
2023/08/05 00:15:07;;;;;;;;;;;;;;;27.06;57.95;98959.13;287186;34;7707;-79
2023/08/05 00:15:17;;;;;;;;;;;;;;;27.03;58.03;98962.19;288930;34;1185;-79
2023/08/05 00:15:28;;;;;;;;;;;;;;;27.03;58.06;98962.19;285745;34;6997;-79
2023/08/05 00:15:38;;;;;;;;;;;;;;;27.02;58.17;98958.66;285361;34;4340;-79
2023/08/05 00:15:50;;;;;;;;;;;;;;;27.04;58.13;98955.78;284013;34;1215;-80
2023/08/05 00:16:01;;;;;;;;;;;;;;;27.08;58.00;98959.78;278521;35;1292;-80
2023/08/05 00:16:11;;;;;;;;;;;;;;;27.07;57.86;98958.13;279140;35;5500;-80
2023/08/05 00:17:56;;;;;;;;;;;;;;;26.80;58.84;98963.06;2505683;27;19932;-79
2023/08/05 00:18:07;;;;;;;;;;;;;;;26.78;59.11;98962.41;356394;27;811;-79
2023/08/05 00:18:17;;;;;;;;;;;;;;;26.73;58.95;98954.06;355062;27;1193;-79
2023/08/05 00:18:27;;;;;;;;;;;;;;;26.69;59.25;98963.50;352083;28;1254;-79
2023/08/05 00:18:38;;;;;;;;;;;;;;;26.68;59.30;98952.94;350632;28;1280;-79
2023/08/05 00:18:48;;;;;;;;;;;;;;;26.66;59.37;98958.50;351952;28;1255;-79
2023/08/05 00:18:58;;;;;;;;;;;;;;;26.67;59.40;98960.16;350560;28;1286;-79
2023/08/05 00:19:09;;;;;;;;;;;;;;;26.69;59.28;98965.34;349570;28;1210;-78
2023/08/05 00:19:19;;;;;;;;;;;;;;;26.70;59.12;98957.13;350512;28;1211;-79
2023/08/05 00:19:29;;;;;;;;;;;;;;;26.72;59.20;98957.75;351925;28;1203;-79
2023/08/05 00:19:40;;;;;;;;;;;;;;;26.72;59.21;98957.75;350506;28;1207;-79
2023/08/05 00:19:50;;;;;;;;;;;;;;;26.72;59.41;98957.75;349893;28;1584;-79
2023/08/05 00:20:01;;;;;;;;;;;;;;;26.73;59.27;98959.44;351153;28;1214;-79
2023/08/05 00:20:12;;;;;;;;;;;;;;;26.75;59.33;98957.41;350533;28;1290;-79
2023/08/05 00:20:22;;;;;;;;;;;;;;;26.75;59.37;98956.56;349005;28;1339;-79
2023/08/05 00:20:32;;;;;;;;;;;;;;;26.74;59.28;98954.91;349589;28;927;-79
2023/08/05 00:20:42;;;;;;;;;;;;;;;26.74;59.42;98955.72;350504;28;1158;-79
2023/08/05 00:20:53;;;;;;;;;;;;;;;26.78;59.24;98958.88;349126;28;1168;-79
2023/08/05 00:21:03;;;;;;;;;;;;;;;26.78;59.07;98956.22;349214;28;1249;-79
2023/08/05 00:21:13;;;;;;;;;;;;;;;26.77;59.26;98952.69;349292;28;1194;-79
2023/08/05 00:21:23;;;;;;;;;;;;;;;26.76;59.31;98956.38;349076;28;878;-79
2023/08/05 00:21:34;;;;;;;;;;;;;;;26.76;59.35;98953.69;347685;28;1234;-79
2023/08/05 00:21:44;;;;;;;;;;;;;;;26.77;59.43;98955.38;349480;28;1029;-79
2023/08/05 00:21:54;;;;;;;;;;;;;;;26.76;59.24;98959.06;350617;28;1317;-79
2023/08/05 00:22:04;;;;;;;;;;;;;;;26.77;59.41;98955.38;350142;28;1195;-80
2023/08/05 00:22:15;;;;;;;;;;;;;;;26.74;59.34;98953.06;349096;28;1389;-81
2023/08/05 00:22:25;;;;;;;;;;;;;;;26.71;59.32;98956.09;351782;28;1202;-80
2023/08/05 00:22:35;;;;;;;;;;;;;;;26.67;59.64;98957.47;351313;28;1220;-80
2023/08/05 00:22:45;;;;;;;;;;;;;;;26.60;59.70;98956.53;350645;28;1333;-80
2023/08/05 00:22:56;;;;;;;;;;;;;;;26.53;59.76;98958.25;346488;28;1206;-80
2023/08/05 00:23:06;;;;;;;;;;;;;;;26.54;59.87;98953.72;345605;28;1304;-80
2023/08/05 00:23:16;;;;;;;;;;;;;;;26.51;60.23;98961.13;346646;28;1194;-79
2023/08/05 00:23:27;;;;;;;;;;;;;;;26.50;60.08;98959.47;347630;28;1370;-79
2023/08/05 00:23:37;;;;;;;;;;;;;;;26.51;60.14;98954.91;346333;28;1207;-79
2023/08/05 00:23:47;;;;;;;;;;;;;;;26.53;60.04;98955.56;345127;28;1379;-79
2023/08/05 00:23:57;;;;;;;;;;;;;;;26.55;60.08;98953.56;346619;28;788;-79
2023/08/05 00:24:08;;;;;;;;;;;;;;;26.58;60.14;98960.41;348192;28;1005;-79
2023/08/05 00:24:18;;;;;;;;;;;;;;;26.58;59.82;98949.66;348636;28;1250;-79
2023/08/05 00:24:28;;;;;;;;;;;;;;;26.56;60.35;98952.53;342825;28;1241;-78
2023/08/05 00:24:39;;;;;;;;;;;;;;;26.49;60.29;98959.63;346935;28;1234;-79
2023/08/05 00:24:49;;;;;;;;;;;;;;;26.46;60.33;98947.41;348738;28;1155;-79
2023/08/05 00:25:00;;;;;;;;;;;;;;;26.46;60.33;98960.00;347713;28;1390;-79
2023/08/05 00:25:10;;;;;;;;;;;;;;;26.44;60.65;98959.34;346666;28;1256;-79
2023/08/05 00:25:20;;;;;;;;;;;;;;;26.40;60.94;98963.44;346158;28;1325;-79
2023/08/05 00:25:30;;;;;;;;;;;;;;;26.35;61.33;98955.91;344642;28;1337;-79
2023/08/05 00:25:40;;;;;;;;;;;;;;;26.33;61.03;98947.19;344052;28;1206;-79
2023/08/05 00:25:51;;;;;;;;;;;;;;;26.32;60.90;98947.38;343040;28;1308;-79
2023/08/05 00:26:01;;;;;;;;;;;;;;;26.30;61.21;98954.75;342148;28;1352;-80
2023/08/05 00:26:11;;;;;;;;;;;;;;;26.30;61.10;98954.75;339710;29;881;-80
2023/08/05 00:26:21;;;;;;;;;;;;;;;26.29;61.22;98956.59;342180;28;1435;-80
2023/08/05 00:26:32;;;;;;;;;;;;;;;26.30;61.43;98952.06;345096;28;1689;-79
2023/08/05 00:26:42;;;;;;;;;;;;;;;26.32;61.24;98955.44;342162;28;1205;-79
2023/08/05 00:26:52;;;;;;;;;;;;;;;26.35;61.25;98952.38;348122;28;1909;-79
2023/08/05 00:27:03;;;;;;;;;;;;;;;26.40;61.12;98947.31;346640;28;1278;-80
2023/08/05 00:27:13;;;;;;;;;;;;;;;26.42;60.98;98953.34;346211;28;1265;-80
2023/08/05 00:27:23;;;;;;;;;;;;;;;26.47;60.95;98948.25;346438;28;1334;-80
2023/08/05 00:27:33;;;;;;;;;;;;;;;26.51;60.31;98952.25;346170;28;1187;-80
2023/08/05 00:27:44;;;;;;;;;;;;;;;26.57;60.43;98953.38;345404;28;1316;-80
2023/08/05 00:27:54;;;;;;;;;;;;;;;26.61;60.39;98949.31;343787;28;1449;-80
2023/08/05 00:28:04;;;;;;;;;;;;;;;26.57;60.56;98950.69;341555;28;1974;-80
2023/08/05 00:28:14;;;;;;;;;;;;;;;26.54;60.73;98957.25;342231;28;1262;-80
2023/08/05 00:28:25;;;;;;;;;;;;;;;26.51;60.62;98957.59;338434;29;2093;-79
2023/08/05 00:28:35;;;;;;;;;;;;;;;26.46;60.82;98951.94;335503;29;1998;-79
2023/08/05 00:28:45;;;;;;;;;;;;;;;26.44;60.85;98953.97;333199;29;1264;-79
2023/08/05 00:28:55;;;;;;;;;;;;;;;26.44;61.03;98959.34;334385;29;1264;-79
2023/08/05 00:29:06;;;;;;;;;;;;;;;26.42;61.06;98948.81;330732;29;1722;-79
2023/08/05 00:29:16;;;;;;;;;;;;;;;26.42;61.00;98953.34;330637;29;1197;-79
2023/08/05 00:29:26;;;;;;;;;;;;;;;26.42;61.09;98950.66;330782;29;867;-79
2023/08/05 00:29:36;;;;;;;;;;;;;;;26.42;61.31;98947.97;331276;29;1230;-79
2023/08/05 00:29:47;;;;;;;;;;;;;;;26.43;61.02;98958.50;331535;29;1793;-79
2023/08/05 00:29:57;;;;;;;;;;;;;;;26.47;60.96;98953.59;332000;29;1251;-79
2023/08/05 00:30:07;;;;;;;;;;;;;;;26.46;61.01;98951.94;330210;29;2138;-79
2023/08/05 00:30:18;;;;;;;;;;;;;;;26.41;61.09;98949.81;326290;29;2313;-80
2023/08/05 00:30:28;;;;;;;;;;;;;;;26.39;61.32;98951.03;330094;30;954;-80
2023/08/05 00:30:38;;;;;;;;;;;;;;;26.40;61.20;98950.00;328323;29;2248;-80
2023/08/05 00:30:48;;;;;;;;;;;;;;;26.43;61.05;98946.94;328703;29;2385;-80
2023/08/05 00:30:58;;;;;;;;;;;;;;;26.45;61.02;98950.28;328603;30;1222;-80
2023/08/05 00:31:09;;;;;;;;;;;;;;;26.41;61.20;98957.03;328261;29;2465;-80
2023/08/05 00:31:19;;;;;;;;;;;;;;;26.38;61.23;98960.09;326526;30;1784;-80
2023/08/05 00:31:29;;;;;;;;;;;;;;;26.36;61.25;98952.22;327029;30;1330;-80
2023/08/05 00:31:39;;;;;;;;;;;;;;;26.34;61.46;98953.41;327843;30;1340;-80
2023/08/05 00:31:50;;;;;;;;;;;;;;;26.34;61.43;98950.72;328326;30;2123;-80
2023/08/05 00:32:00;;;;;;;;;;;;;;;26.34;61.35;98948.03;329619;29;800;-81
2023/08/05 00:32:10;;;;;;;;;;;;;;;26.35;61.47;98950.53;327602;30;2487;-81
2023/08/05 00:32:20;;;;;;;;;;;;;;;26.36;61.69;98956.75;328723;29;2704;-79
2023/08/05 00:32:34;;;;;;;;;;;;;;;26.29;61.84;98947.72;324987;30;3045;-79
2023/08/05 00:32:44;;;;;;;;;;;;;;;26.31;61.72;98949.22;322414;30;860;-79
2023/08/05 00:32:54;;;;;;;;;;;;;;;26.32;61.72;98948.22;322703;30;2891;-79
2023/08/05 00:33:04;;;;;;;;;;;;;;;26.36;61.59;98954.06;321198;30;2814;-79
2023/08/05 00:33:15;;;;;;;;;;;;;;;26.37;61.46;98950.38;321145;30;916;-79
2023/08/05 00:33:25;;;;;;;;;;;;;;;26.38;61.41;98954.72;322405;30;2817;-79
2023/08/05 00:33:35;;;;;;;;;;;;;;;26.36;61.61;98951.38;321417;30;2512;-79
2023/08/05 00:33:45;;;;;;;;;;;;;;;26.25;62.23;98954.44;320851;30;2440;-79
2023/08/05 00:33:56;;;;;;;;;;;;;;;26.16;62.49;98949.13;316533;31;1277;-79
2023/08/05 00:34:06;;;;;;;;;;;;;;;26.10;62.47;98947.16;314015;31;4471;-79
2023/08/05 00:34:16;;;;;;;;;;;;;;;26.11;62.49;98943.47;312235;31;3494;-79
2023/08/05 00:34:26;;;;;;;;;;;;;;;26.16;62.11;98951.81;313095;31;1193;-79
2023/08/05 00:34:37;;;;;;;;;;;;;;;26.17;62.39;98948.13;312368;31;3675;-80
2023/08/05 00:34:47;;;;;;;;;;;;;;;26.16;62.48;98945.63;308703;31;3981;-80
2023/08/05 00:34:57;;;;;;;;;;;;;;;26.15;62.50;98950.13;307074;32;1447;-79
2023/08/05 00:35:08;;;;;;;;;;;;;;;26.17;62.58;98947.28;307146;31;4286;-79
2023/08/05 00:35:18;;;;;;;;;;;;;;;26.17;62.25;98947.28;307475;31;3784;-79
2023/08/05 00:35:28;;;;;;;;;;;;;;;26.20;62.27;98952.28;303403;32;1285;-79
2023/08/05 00:35:39;;;;;;;;;;;;;;;26.24;62.40;98948.25;300139;32;4160;-79
2023/08/05 00:35:49;;;;;;;;;;;;;;;26.26;62.18;98950.75;302606;32;3541;-79
2023/08/05 00:35:59;;;;;;;;;;;;;;;26.23;62.25;98953.78;305582;32;1308;-79
2023/08/05 00:36:09;;;;;;;;;;;;;;;26.23;62.33;98948.41;300825;32;3281;-79
2023/08/05 00:36:20;;;;;;;;;;;;;;;26.26;62.18;98950.75;301201;32;4815;-79
2023/08/05 00:36:30;;;;;;;;;;;;;;;26.25;61.99;98954.44;302514;32;746;-79
2023/08/05 00:36:40;;;;;;;;;;;;;;;26.28;62.42;98948.72;297349;32;6214;-79
2023/08/05 00:36:50;;;;;;;;;;;;;;;26.30;61.99;98944.84;296094;32;6245;-79
2023/08/05 00:37:01;;;;;;;;;;;;;;;26.32;62.03;98950.06;294867;33;6512;-79
2023/08/05 00:37:11;;;;;;;;;;;;;;;26.33;62.10;98957.09;295369;33;843;-79
2023/08/05 00:37:21;;;;;;;;;;;;;;;26.34;61.85;98954.25;295169;33;6452;-79
2023/08/05 00:37:32;;;;;;;;;;;;;;;26.37;62.02;98953.88;294566;33;5759;-80
2023/08/05 00:37:42;;;;;;;;;;;;;;;26.39;62.02;98949.16;293493;33;1021;-80
2023/08/05 00:37:52;;;;;;;;;;;;;;;26.38;61.78;98949.34;290480;33;5340;-80
2023/08/05 00:38:03;;;;;;;;;;;;;;;26.38;61.96;98952.03;287423;34;4937;-80
2023/08/05 00:38:13;;;;;;;;;;;;;;;26.38;61.74;98944.81;285942;34;1380;-80
2023/08/05 00:38:23;;;;;;;;;;;;;;;26.38;61.88;98954.72;285249;34;4911;-80
2023/08/05 00:38:33;;;;;;;;;;;;;;;26.38;61.80;98952.03;284308;34;6708;-80
2023/08/05 00:38:44;;;;;;;;;;;;;;;26.39;61.95;98951.84;283859;34;1242;-80
2023/08/05 00:38:54;;;;;;;;;;;;;;;26.40;61.76;98941.94;283364;34;9491;-80
2023/08/05 00:39:04;;;;;;;;;;;;;;;26.43;61.63;98952.31;281285;34;10273;-80
2023/08/05 00:39:14;;;;;;;;;;;;;;;26.45;61.72;98955.63;279359;35;1229;-80
2023/08/05 00:41:18;;;;;;;;;;;;;;;26.68;61.00;98950.25;2495290;27;19940;-79
2023/08/05 00:41:29;;;;;;;;;;;;;;;26.60;61.17;98953.84;353374;28;1334;-79
2023/08/05 00:41:39;;;;;;;;;;;;;;;26.53;61.43;98947.53;350741;28;1194;-79
2023/08/05 00:41:49;;;;;;;;;;;;;;;26.50;61.62;98939.84;347775;28;1314;-79
2023/08/05 00:41:59;;;;;;;;;;;;;;;26.49;61.74;98949.72;348021;28;1216;-79
2023/08/05 00:42:10;;;;;;;;;;;;;;;26.45;61.66;98939.53;347640;28;1300;-79
2023/08/05 00:42:20;;;;;;;;;;;;;;;26.44;62.10;98941.38;347842;28;1217;-79
2023/08/05 00:42:30;;;;;;;;;;;;;;;26.44;61.99;98948.59;349156;28;1212;-79
2023/08/05 00:42:41;;;;;;;;;;;;;;;26.44;61.75;98946.75;347630;28;1184;-80
2023/08/05 00:42:51;;;;;;;;;;;;;;;26.47;61.90;98948.25;350958;28;1268;-79
2023/08/05 00:43:01;;;;;;;;;;;;;;;26.43;61.94;98946.94;347937;28;859;-78
2023/08/05 00:43:11;;;;;;;;;;;;;;;26.40;61.84;98941.94;348346;28;765;-79
2023/08/05 00:43:22;;;;;;;;;;;;;;;26.38;62.18;98943.97;349201;28;1186;-79
2023/08/05 00:43:32;;;;;;;;;;;;;;;26.37;62.27;98942.31;348074;28;872;-79
2023/08/05 00:43:42;;;;;;;;;;;;;;;26.38;62.34;98943.97;344805;28;1296;-79
2023/08/05 00:43:52;;;;;;;;;;;;;;;26.39;62.04;98945.66;345004;28;1245;-80
2023/08/05 00:44:03;;;;;;;;;;;;;;;26.38;62.05;98943.97;345067;28;837;-80
2023/08/05 00:44:13;;;;;;;;;;;;;;;26.35;62.38;98950.53;344074;28;1333;-80
2023/08/05 00:44:23;;;;;;;;;;;;;;;26.33;62.49;98943.69;345083;28;1286;-79
2023/08/05 00:44:34;;;;;;;;;;;;;;;26.28;62.50;98932.63;343744;28;1485;-79
2023/08/05 00:44:44;;;;;;;;;;;;;;;26.24;62.92;98939.34;345036;28;1201;-79
2023/08/05 00:44:55;;;;;;;;;;;;;;;26.21;63.09;98937.03;343775;28;1287;-79
2023/08/05 00:45:05;;;;;;;;;;;;;;;26.19;62.88;98945.25;343795;28;1301;-79
2023/08/05 00:45:15;;;;;;;;;;;;;;;26.20;63.23;98941.56;345601;28;1313;-79
2023/08/05 00:45:25;;;;;;;;;;;;;;;26.23;63.02;98940.38;346412;28;866;-79
2023/08/05 00:45:36;;;;;;;;;;;;;;;26.26;62.95;98934.66;346543;28;1364;-80
2023/08/05 00:45:46;;;;;;;;;;;;;;;26.26;62.99;98929.28;346459;28;906;-80
2023/08/05 00:45:57;;;;;;;;;;;;;;;26.25;62.75;98930.28;346807;28;1449;-80
2023/08/05 00:46:08;;;;;;;;;;;;;;;26.27;63.02;98937.16;347036;28;879;-80
2023/08/05 00:46:22;;;;;;;;;;;;;;;26.28;62.76;98932.63;343643;28;1240;-80
2023/08/05 00:46:32;;;;;;;;;;;;;;;26.31;62.73;98941.19;346468;28;1251;-80
2023/08/05 00:46:43;;;;;;;;;;;;;;;26.29;62.49;98934.28;346297;28;1383;-80
2023/08/05 00:46:53;;;;;;;;;;;;;;;26.30;62.77;98941.31;344984;28;1430;-80
2023/08/05 00:47:03;;;;;;;;;;;;;;;26.29;62.72;98934.28;345519;28;1146;-80
2023/08/05 00:47:14;;;;;;;;;;;;;;;26.22;62.90;98933.34;342936;28;1265;-80
2023/08/05 00:47:24;;;;;;;;;;;;;;;26.20;62.95;98933.50;346053;28;1069;-80
2023/08/05 00:47:35;;;;;;;;;;;;;;;26.21;62.99;98937.03;343299;28;1216;-80
2023/08/05 00:47:45;;;;;;;;;;;;;;;26.23;62.95;98935.00;343553;28;1072;-80
2023/08/05 00:47:55;;;;;;;;;;;;;;;26.26;63.15;98935.47;340829;29;1196;-80
2023/08/05 00:48:05;;;;;;;;;;;;;;;26.29;63.09;98931.59;342754;28;1284;-79
2023/08/05 00:48:16;;;;;;;;;;;;;;;26.30;62.89;98939.47;339319;29;1272;-79
2023/08/05 00:48:26;;;;;;;;;;;;;;;26.28;62.88;98936.13;338494;29;1258;-79
2023/08/05 00:48:36;;;;;;;;;;;;;;;26.24;63.17;98936.69;338483;29;1327;-79
2023/08/05 00:48:46;;;;;;;;;;;;;;;26.22;63.15;98936.84;342296;28;1113;-79
2023/08/05 00:48:57;;;;;;;;;;;;;;;26.21;63.00;98937.03;340906;29;1228;-79
2023/08/05 00:49:07;;;;;;;;;;;;;;;26.18;63.32;98933.69;339772;29;1189;-79
2023/08/05 00:49:17;;;;;;;;;;;;;;;26.16;63.25;98930.34;341628;28;1387;-79
2023/08/05 00:49:29;;;;;;;;;;;;;;;26.19;63.25;98935.38;339779;28;833;-79
2023/08/05 00:49:40;;;;;;;;;;;;;;;26.25;63.14;98932.97;336812;29;1344;-79
2023/08/05 00:49:50;;;;;;;;;;;;;;;26.27;63.13;98937.16;337181;29;861;-79
2023/08/05 00:50:00;;;;;;;;;;;;;;;26.28;62.97;98936.13;337391;29;1524;-79
2023/08/05 00:50:11;;;;;;;;;;;;;;;26.24;63.05;98932.16;335258;29;1459;-79
2023/08/05 00:50:22;;;;;;;;;;;;;;;26.17;63.45;98934.72;333243;29;1204;-79
2023/08/05 00:50:32;;;;;;;;;;;;;;;26.11;63.65;98932.72;336873;29;1379;-79
2023/08/05 00:50:42;;;;;;;;;;;;;;;26.04;64.04;98930.94;338579;29;1231;-79
2023/08/05 00:50:54;;;;;;;;;;;;;;;26.02;63.98;98933.78;335756;29;1226;-79
2023/08/05 00:51:04;;;;;;;;;;;;;;;26.02;64.37;98931.13;336688;29;1353;-79
2023/08/05 00:51:14;;;;;;;;;;;;;;;26.02;64.20;98932.97;335519;29;1654;-79
2023/08/05 00:51:25;;;;;;;;;;;;;;;26.06;64.21;98931.59;335169;29;1657;-80
2023/08/05 00:51:35;;;;;;;;;;;;;;;26.10;63.90;98931.06;334630;29;1240;-80
2023/08/05 00:51:45;;;;;;;;;;;;;;;26.12;63.95;98931.72;331777;29;1673;-80
2023/08/05 00:51:55;;;;;;;;;;;;;;;26.16;63.75;98932.19;331654;29;2014;-80
2023/08/05 00:52:06;;;;;;;;;;;;;;;26.19;63.56;98932.69;331158;29;1202;-80
2023/08/05 00:52:17;;;;;;;;;;;;;;;26.22;63.51;98933.34;328359;29;2208;-80
2023/08/05 00:52:27;;;;;;;;;;;;;;;26.25;63.23;98938.34;326309;30;1703;-81
2023/08/05 00:52:37;;;;;;;;;;;;;;;26.27;63.38;98930.94;327116;30;1239;-80
2023/08/05 00:52:47;;;;;;;;;;;;;;;26.24;63.37;98931.31;327903;30;1191;-80
2023/08/05 00:52:58;;;;;;;;;;;;;;;26.18;63.58;98943.59;327478;30;1213;-81
2023/08/05 00:53:08;;;;;;;;;;;;;;;26.14;63.93;98935.06;327038;29;1863;-79
2023/08/05 00:53:22;;;;;;;;;;;;;;;26.15;63.80;98933.22;332139;29;1228;-79
2023/08/05 00:53:34;;;;;;;;;;;;;;;26.15;63.80;98934.03;328384;30;1367;-81
2023/08/05 00:53:44;;;;;;;;;;;;;;;26.15;63.75;98939.41;323557;30;2098;-80
2023/08/05 00:53:54;;;;;;;;;;;;;;;26.12;63.76;98939.78;325532;29;2193;-80
2023/08/05 00:54:04;;;;;;;;;;;;;;;26.08;63.91;98934.94;325948;30;1321;-80
2023/08/05 00:54:15;;;;;;;;;;;;;;;26.07;64.23;98939.47;325351;30;2741;-80
2023/08/05 00:54:25;;;;;;;;;;;;;;;26.05;64.11;98944.16;325668;30;2588;-80
2023/08/05 00:54:35;;;;;;;;;;;;;;;26.00;64.55;98935.81;325974;30;1460;-80
2023/08/05 00:54:46;;;;;;;;;;;;;;;26.01;64.40;98940.16;325643;30;1575;-80
2023/08/05 00:54:56;;;;;;;;;;;;;;;25.99;64.48;98930.66;327207;30;900;-80
2023/08/05 00:55:06;;;;;;;;;;;;;;;25.97;64.87;98936.22;328328;30;737;-80
2023/08/05 00:55:17;;;;;;;;;;;;;;;25.96;64.75;98934.53;325322;30;1733;-80
2023/08/05 00:55:27;;;;;;;;;;;;;;;25.96;64.68;98934.53;322979;30;2673;-80
2023/08/05 00:55:37;;;;;;;;;;;;;;;25.96;64.74;98929.19;321221;30;1241;-80
2023/08/05 00:55:48;;;;;;;;;;;;;;;25.94;64.93;98927.69;320573;30;2037;-80
2023/08/05 00:55:58;;;;;;;;;;;;;;;25.94;64.91;98939.25;321107;30;2741;-80
2023/08/05 00:56:08;;;;;;;;;;;;;;;25.95;64.79;98932.03;320947;30;2925;-80
2023/08/05 00:56:19;;;;;;;;;;;;;;;25.96;64.69;98934.53;319937;30;1352;-80
2023/08/05 00:56:29;;;;;;;;;;;;;;;25.95;64.90;98938.22;317103;31;3302;-80
2023/08/05 00:56:39;;;;;;;;;;;;;;;25.94;64.95;98931.19;315920;30;2820;-80
2023/08/05 00:56:49;;;;;;;;;;;;;;;25.93;64.90;98934.06;315443;31;1328;-80
2023/08/05 00:57:00;;;;;;;;;;;;;;;25.90;65.15;98935.25;317049;30;2100;-80
2023/08/05 00:57:10;;;;;;;;;;;;;;;25.87;65.35;98930.22;316302;31;2240;-80
2023/08/05 00:57:20;;;;;;;;;;;;;;;25.88;65.32;98934.59;316874;31;1227;-80
2023/08/05 00:57:31;;;;;;;;;;;;;;;25.88;65.15;98939.94;316771;31;2759;-80
2023/08/05 00:57:41;;;;;;;;;;;;;;;25.89;65.15;98938.94;315005;31;3645;-80
2023/08/05 00:57:51;;;;;;;;;;;;;;;25.86;65.20;98939.28;310805;31;1196;-80
2023/08/05 00:58:01;;;;;;;;;;;;;;;25.85;65.33;98933.09;310734;31;4502;-80
2023/08/05 00:58:12;;;;;;;;;;;;;;;25.83;65.32;98945.84;311048;31;4388;-81
2023/08/05 00:58:22;;;;;;;;;;;;;;;25.84;65.56;98936.78;312122;31;824;-80
2023/08/05 00:58:33;;;;;;;;;;;;;;;25.86;65.35;98933.91;306556;32;1212;-79
2023/08/05 00:58:43;;;;;;;;;;;;;;;25.87;65.41;98930.22;300297;32;4567;-79
2023/08/05 00:58:53;;;;;;;;;;;;;;;25.85;65.73;98926.88;298924;32;3856;-79
2023/08/05 00:59:04;;;;;;;;;;;;;;;25.87;65.35;98930.22;301411;32;1258;-79